Time;durP1;ratioP1;P1;durP2;ratioP2;P2;SDS_P1;SDS_P2;PMS_P1;PMS_P2;Temp;Humidity;BMP_temperature;BMP_pressure;BME280_temperature;BME280_humidity;BME280_pressure;Samples;Min_cycle;Max_cycle;Signal;HPM_P1;HPM_P2
2021/04/04 00:01:22;;;;;;;;;;;10.70;57.70;;;;;;5026086;28;19967;-56
2021/04/04 00:03:48;;;;;;;;;;;10.60;57.70;;;;;;5027205;28;19956;-56
2021/04/04 00:06:14;;;;;;;;;;;10.70;58.40;;;;;;5025292;28;19910;-56
2021/04/04 00:08:39;;;;;;;;;;;10.60;57.80;;;;;;5026877;28;19953;-58
2021/04/04 00:11:05;;;;;;;;;;;10.60;57.90;;;;;;5028546;28;19917;-56
2021/04/04 00:13:30;;;;;;;;;;;10.60;57.90;;;;;;5027011;28;19913;-58
2021/04/04 00:15:56;;;;;;;;;;;10.60;57.90;;;;;;5024798;28;19920;-55
2021/04/04 00:18:21;;;;;;;;;;;10.50;58.00;;;;;;5027152;28;19909;-57
2021/04/04 00:20:47;;;;;;;;;;;10.50;58.00;;;;;;5027642;28;20349;-60
2021/04/04 00:23:12;;;;;;;;;;;10.50;58.10;;;;;;5026853;28;19909;-57
2021/04/04 00:25:37;;;;;;;;;;;10.50;58.10;;;;;;5027940;28;19909;-58
2021/04/04 00:28:03;;;;;;;;;;;10.50;58.20;;;;;;5028214;28;19909;-55
2021/04/04 00:30:28;;;;;;;;;;;10.50;58.20;;;;;;5025054;28;20263;-59
2021/04/04 00:32:54;;;;;;;;;;;10.50;58.10;;;;;;5027225;28;20040;-57
2021/04/04 00:35:20;;;;;;;;;;;10.40;58.10;;;;;;5028093;28;20388;-56
2021/04/04 00:37:46;;;;;;;;;;;10.50;58.30;;;;;;5028292;28;19908;-55
2021/04/04 00:40:13;;;;;;;;;;;10.40;58.30;;;;;;5028018;28;20210;-58
2021/04/04 00:42:38;;;;;;;;;;;10.50;58.40;;;;;;5025788;28;19917;-56
2021/04/04 00:45:08;;;;;;;;;;;10.40;58.30;;;;;;5026197;28;19921;-58
2021/04/04 00:47:34;;;;;;;;;;;10.40;58.40;;;;;;5010618;28;20370;-59
2021/04/04 00:49:59;;;;;;;;;;;10.40;58.50;;;;;;5026136;28;19922;-60
2021/04/04 00:52:25;;;;;;;;;;;10.40;58.50;;;;;;5028115;28;20308;-56
2021/04/04 00:54:50;;;;;;;;;;;10.30;58.40;;;;;;5026744;28;19913;-56
2021/04/04 00:57:15;;;;;;;;;;;10.30;58.50;;;;;;5027992;28;20365;-60
2021/04/04 00:59:41;;;;;;;;;;;10.30;58.60;;;;;;5025666;28;19940;-55
2021/04/04 01:02:06;;;;;;;;;;;10.30;58.60;;;;;;5027833;28;19913;-56
2021/04/04 01:04:32;;;;;;;;;;;10.30;58.60;;;;;;5027533;28;19917;-55
2021/04/04 01:06:57;;;;;;;;;;;10.30;58.70;;;;;;5026701;28;20396;-59
2021/04/04 01:09:23;;;;;;;;;;;10.20;58.70;;;;;;5026122;28;19917;-57
2021/04/04 01:12:17;;;;;;;;;;;10.20;58.80;;;;;;5025256;28;20422;-58
2021/04/04 01:14:56;;;;;;;;;;;10.20;58.80;;;;;;5013572;28;19910;-59
2021/04/04 01:17:22;;;;;;;;;;;10.20;58.90;;;;;;5025417;28;20296;-57
2021/04/04 01:19:50;;;;;;;;;;;10.10;58.90;;;;;;5026949;28;19909;-56
2021/04/04 01:22:18;;;;;;;;;;;10.10;59.00;;;;;;5025721;28;20431;-58
2021/04/04 01:24:46;;;;;;;;;;;10.10;59.00;;;;;;5026793;28;19909;-55
2021/04/04 01:27:28;;;;;;;;;;;10.10;59.10;;;;;;5025473;28;20294;-57
2021/04/04 01:29:54;;;;;;;;;;;10.10;59.10;;;;;;5026978;28;19913;-59
2021/04/04 01:32:19;;;;;;;;;;;10.10;59.10;;;;;;5027722;28;20142;-58
2021/04/04 01:34:45;;;;;;;;;;;10.10;59.20;;;;;;5025301;28;19910;-57
2021/04/04 01:37:12;;;;;;;;;;;10.00;59.10;;;;;;5023274;28;19913;-57
2021/04/04 01:39:39;;;;;;;;;;;10.00;59.20;;;;;;5027231;28;19999;-59
2021/04/04 01:42:05;;;;;;;;;;;10.00;59.30;;;;;;5026469;28;19917;-59
2021/04/04 01:44:31;;;;;;;;;;;10.00;59.30;;;;;;5025123;28;20268;-58
2021/04/04 01:46:56;;;;;;;;;;;10.00;59.30;;;;;;5025571;28;20380;-56
2021/04/04 01:49:22;;;;;;;;;;;10.00;59.40;;;;;;5023539;28;19916;-58
2021/04/04 01:51:47;;;;;;;;;;;9.90;59.30;;;;;;5023749;28;19950;-59
2021/04/04 01:54:13;;;;;;;;;;;9.90;59.40;;;;;;5026507;28;19920;-56
2021/04/04 01:56:38;;;;;;;;;;;9.90;59.50;;;;;;5024781;28;19981;-60
2021/04/04 01:59:04;;;;;;;;;;;9.90;59.60;;;;;;5025251;28;20326;-57
2021/04/04 02:01:30;;;;;;;;;;;9.90;59.60;;;;;;5024785;28;19920;-57
2021/04/04 02:03:59;;;;;;;;;;;9.90;59.70;;;;;;5023013;28;19913;-60
2021/04/04 02:06:24;;;;;;;;;;;10.00;59.80;;;;;;5025585;28;19909;-56
2021/04/04 02:08:50;;;;;;;;;;;9.80;59.70;;;;;;5026659;28;19916;-56
2021/04/04 02:11:16;;;;;;;;;;;9.80;60.40;;;;;;5024598;28;20381;-56
2021/04/04 02:13:42;;;;;;;;;;;9.80;59.80;;;;;;5025450;28;19909;-55
2021/04/04 02:16:07;;;;;;;;;;;9.80;59.80;;;;;;5020808;28;20407;-59
2021/04/04 02:18:32;;;;;;;;;;;9.80;59.80;;;;;;5021809;28;19932;-56
2021/04/04 02:20:59;;;;;;;;;;;9.80;59.90;;;;;;5024098;28;19979;-56
2021/04/04 02:23:25;;;;;;;;;;;9.70;59.90;;;;;;5024490;28;19913;-56
2021/04/04 02:25:54;;;;;;;;;;;9.70;60.00;;;;;;5023447;28;20435;-60
2021/04/04 02:28:19;;;;;;;;;;;9.70;59.90;;;;;;5024502;28;19913;-57
2021/04/04 02:30:45;;;;;;;;;;;9.70;60.00;;;;;;5025031;28;19920;-59
2021/04/04 02:33:12;;;;;;;;;;;9.70;60.00;;;;;;5026839;28;19943;-60
2021/04/04 02:35:38;;;;;;;;;;;9.70;60.20;;;;;;5025589;28;20092;-58
2021/04/04 02:38:14;;;;;;;;;;;9.60;60.10;;;;;;5025323;28;19948;-56
2021/04/04 02:40:41;;;;;;;;;;;9.60;60.10;;;;;;5022960;28;19925;-57
2021/04/04 02:43:07;;;;;;;;;;;9.60;60.20;;;;;;5022588;28;19915;-59
2021/04/04 02:45:32;;;;;;;;;;;9.60;60.20;;;;;;5026349;28;19917;-57
2021/04/04 02:47:59;;;;;;;;;;;9.60;60.30;;;;;;5023430;28;19909;-58
2021/04/04 02:50:25;;;;;;;;;;;9.50;60.30;;;;;;5024406;28;19989;-62
2021/04/04 02:52:50;;;;;;;;;;;9.50;60.30;;;;;;5025265;28;19948;-61
2021/04/04 02:55:16;;;;;;;;;;;9.60;60.40;;;;;;5028685;28;19913;-59
2021/04/04 02:57:41;;;;;;;;;;;9.50;60.30;;;;;;5032070;28;19909;-60
2021/04/04 03:00:07;;;;;;;;;;;9.50;60.40;;;;;;5031271;28;19974;-62
2021/04/04 03:02:33;;;;;;;;;;;9.50;60.40;;;;;;5031305;28;19913;-60
2021/04/04 03:04:59;;;;;;;;;;;9.50;60.40;;;;;;5028879;28;20391;-58
2021/04/04 03:07:25;;;;;;;;;;;9.50;60.50;;;;;;5012447;28;19920;-59
2021/04/04 03:09:51;;;;;;;;;;;9.50;60.60;;;;;;5029604;28;20372;-55
2021/04/04 03:12:16;;;;;;;;;;;9.50;60.50;;;;;;5030550;28;19920;-57
2021/04/04 03:14:43;;;;;;;;;;;9.50;60.50;;;;;;5030266;28;19913;-56
2021/04/04 03:17:09;;;;;;;;;;;9.50;60.60;;;;;;5013424;28;20292;-57
2021/04/04 03:19:34;;;;;;;;;;;9.50;60.70;;;;;;5029525;28;19920;-58
2021/04/04 03:22:00;;;;;;;;;;;9.40;60.70;;;;;;5028762;28;19917;-58
2021/04/04 03:24:25;;;;;;;;;;;9.40;60.70;;;;;;5031507;28;19913;-56
2021/04/04 03:26:50;;;;;;;;;;;9.40;60.80;;;;;;5014448;28;20261;-59
2021/04/04 03:29:16;;;;;;;;;;;9.40;60.70;;;;;;5032616;28;19917;-57
2021/04/04 03:31:41;;;;;;;;;;;9.40;60.80;;;;;;5030818;28;19970;-56
2021/04/04 03:34:07;;;;;;;;;;;9.30;60.80;;;;;;5030156;28;19917;-57
2021/04/04 03:36:32;;;;;;;;;;;9.30;60.80;;;;;;5029547;28;19975;-57
2021/04/04 03:38:58;;;;;;;;;;;9.30;60.90;;;;;;5030687;28;19925;-58
2021/04/04 03:41:27;;;;;;;;;;;9.30;60.90;;;;;;5030505;28;19920;-58
2021/04/04 03:43:52;;;;;;;;;;;9.30;61.00;;;;;;5030270;28;21113;-55
2021/04/04 03:46:21;;;;;;;;;;;9.20;60.90;;;;;;5030179;28;19996;-57
2021/04/04 03:48:46;;;;;;;;;;;9.30;61.00;;;;;;5029418;28;19958;-58
2021/04/04 03:51:12;;;;;;;;;;;9.30;61.10;;;;;;5029423;28;19913;-59
2021/04/04 03:53:38;;;;;;;;;;;9.20;61.00;;;;;;5030097;28;20107;-55
2021/04/04 03:56:04;;;;;;;;;;;9.20;61.00;;;;;;5029672;28;19909;-59
2021/04/04 03:58:30;;;;;;;;;;;9.20;61.00;;;;;;5030058;28;19920;-59
2021/04/04 04:00:55;;;;;;;;;;;9.20;61.10;;;;;;5027861;28;19960;-58
2021/04/04 04:03:20;;;;;;;;;;;9.20;61.10;;;;;;5032278;28;19910;-61
2021/04/04 04:05:46;;;;;;;;;;;9.20;61.10;;;;;;5026300;28;19963;-60
2021/04/04 04:08:12;;;;;;;;;;;9.10;61.10;;;;;;5027547;28;19910;-61
2021/04/04 04:10:38;;;;;;;;;;;9.10;61.20;;;;;;5009696;28;20323;-60
2021/04/04 04:13:03;;;;;;;;;;;9.10;61.20;;;;;;5025660;28;20428;-60
2021/04/04 04:15:29;;;;;;;;;;;9.10;61.30;;;;;;5010463;28;19917;-61
2021/04/04 04:17:54;;;;;;;;;;;9.10;61.40;;;;;;5025610;28;19921;-59
2021/04/04 04:20:20;;;;;;;;;;;9.10;61.30;;;;;;5026145;28;19970;-58
2021/04/04 04:22:45;;;;;;;;;;;9.10;61.30;;;;;;5026016;28;19909;-58
2021/04/04 04:25:11;;;;;;;;;;;9.10;61.40;;;;;;5025524;28;20542;-56
2021/04/04 04:27:36;;;;;;;;;;;9.00;61.30;;;;;;5026638;28;19928;-58
2021/04/04 04:30:02;;;;;;;;;;;9.00;61.30;;;;;;5010824;28;19913;-58
2021/04/04 04:32:27;;;;;;;;;;;9.00;61.40;;;;;;5026324;28;20511;-56
2021/04/04 04:34:53;;;;;;;;;;;9.00;61.40;;;;;;5010327;28;19913;-58
2021/04/04 04:37:19;;;;;;;;;;;9.00;61.50;;;;;;5025442;28;20300;-56
2021/04/04 04:39:44;;;;;;;;;;;9.00;61.60;;;;;;5024449;28;19925;-56
2021/04/04 04:42:10;;;;;;;;;;;9.00;61.50;;;;;;5026051;28;19960;-57
2021/04/04 04:44:36;;;;;;;;;;;8.90;61.50;;;;;;5028557;28;20396;-56
2021/04/04 04:47:01;;;;;;;;;;;8.90;61.40;;;;;;5027792;28;19909;-57
2021/04/04 04:49:26;;;;;;;;;;;8.90;61.50;;;;;;5024372;28;20387;-60
2021/04/04 04:51:52;;;;;;;;;;;8.90;61.50;;;;;;5024884;28;20013;-58
2021/04/04 04:54:17;;;;;;;;;;;8.90;61.50;;;;;;5024832;28;19924;-58
2021/04/04 04:56:43;;;;;;;;;;;8.90;61.70;;;;;;5027790;28;19921;-58
2021/04/04 04:59:09;;;;;;;;;;;8.90;61.70;;;;;;5025649;28;20420;-59
2021/04/04 05:01:38;;;;;;;;;;;8.90;61.70;;;;;;5025154;28;19913;-55
2021/04/04 05:04:04;;;;;;;;;;;8.80;61.80;;;;;;5023932;28;19952;-58
2021/04/04 05:06:29;;;;;;;;;;;8.80;61.70;;;;;;5026297;28;19964;-56
2021/04/04 05:08:55;;;;;;;;;;;8.80;61.80;;;;;;5027877;28;19959;-60
2021/04/04 05:11:20;;;;;;;;;;;8.80;61.80;;;;;;5025537;28;20011;-58
2021/04/04 05:13:46;;;;;;;;;;;8.80;61.80;;;;;;5025963;28;20014;-58
2021/04/04 05:16:12;;;;;;;;;;;8.70;61.80;;;;;;5024508;28;19909;-58
2021/04/04 05:18:37;;;;;;;;;;;8.70;61.90;;;;;;5025649;28;19977;-59
2021/04/04 05:21:03;;;;;;;;;;;8.70;62.00;;;;;;5028266;28;20344;-56
2021/04/04 05:23:28;;;;;;;;;;;8.70;61.90;;;;;;5027518;28;20004;-56
2021/04/04 05:25:54;;;;;;;;;;;8.70;61.90;;;;;;5027679;28;19921;-59
2021/04/04 05:28:19;;;;;;;;;;;8.70;62.00;;;;;;5024630;28;19917;-56
2021/04/04 05:30:45;;;;;;;;;;;8.70;62.10;;;;;;5025581;28;19921;-55
2021/04/04 05:33:10;;;;;;;;;;;8.70;62.10;;;;;;5027623;28;19920;-58
2021/04/04 05:35:37;;;;;;;;;;;8.70;62.10;;;;;;5027291;28;19956;-55
2021/04/04 05:38:02;;;;;;;;;;;8.60;62.10;;;;;;5026345;28;19921;-57
2021/04/04 05:40:29;;;;;;;;;;;8.60;62.20;;;;;;5023808;28;19921;-59
2021/04/04 05:42:58;;;;;;;;;;;8.60;62.20;;;;;;5024816;28;19914;-58
2021/04/04 05:45:26;;;;;;;;;;;8.60;62.30;;;;;;5023402;28;19917;-55
2021/04/04 05:47:56;;;;;;;;;;;8.60;62.20;;;;;;5024513;28;19909;-56
2021/04/04 05:50:25;;;;;;;;;;;8.60;62.30;;;;;;5026481;28;19913;-59
2021/04/04 05:53:09;;;;;;;;;;;8.60;62.30;;;;;;5026374;28;19917;-59
2021/04/04 05:55:38;;;;;;;;;;;8.60;62.20;;;;;;5026532;28;20015;-58
2021/04/04 05:58:05;;;;;;;;;;;8.60;62.30;;;;;;5023240;28;20444;-58
2021/04/04 06:00:32;;;;;;;;;;;8.60;62.30;;;;;;5024648;28;19924;-56
2021/04/04 06:03:15;;;;;;;;;;;8.60;62.30;;;;;;5024237;28;20365;-55
2021/04/04 06:05:53;;;;;;;;;;;8.60;62.30;;;;;;5024319;28;20391;-57
2021/04/04 06:08:37;;;;;;;;;;;8.50;62.20;;;;;;5025120;28;19914;-61
2021/04/04 06:11:18;;;;;;;;;;;8.50;62.20;;;;;;5024130;28;19919;-59
2021/04/04 06:13:53;;;;;;;;;;;8.50;62.30;;;;;;5026126;28;19963;-60
2021/04/04 06:16:19;;;;;;;;;;;8.50;62.30;;;;;;5026482;28;19952;-60
2021/04/04 06:18:48;;;;;;;;;;;8.50;63.00;;;;;;5024314;28;19909;-58
2021/04/04 06:21:26;;;;;;;;;;;8.50;62.30;;;;;;5024247;28;19924;-61
2021/04/04 06:23:56;;;;;;;;;;;8.50;62.30;;;;;;5023910;28;19913;-59
2021/04/04 06:26:31;;;;;;;;;;;8.50;62.30;;;;;;5024572;28;19917;-58
2021/04/04 06:29:07;;;;;;;;;;;8.50;62.30;;;;;;5024845;28;19988;-54
2021/04/04 06:31:36;;;;;;;;;;;8.50;62.40;;;;;;5024397;28;19924;-57
2021/04/04 06:34:04;;;;;;;;;;;8.50;62.40;;;;;;5022516;28;19917;-59
2021/04/04 06:36:35;;;;;;;;;;;8.50;62.40;;;;;;5024108;28;19979;-58
2021/04/04 06:39:04;;;;;;;;;;;8.40;62.40;;;;;;5023568;28;19924;-54
2021/04/04 06:41:44;;;;;;;;;;;8.40;62.50;;;;;;5025115;28;19913;-56
2021/04/04 06:44:13;;;;;;;;;;;8.40;62.30;;;;;;5023996;28;19940;-60
2021/04/04 06:47:14;;;;;;;;;;;8.50;62.50;;;;;;5024677;28;19918;-60
2021/04/04 06:49:39;;;;;;;;;;;8.40;62.50;;;;;;4981294;28;19917;-59
2021/04/04 06:52:12;;;;;;;;;;;8.40;62.50;;;;;;5015920;28;19915;-58
2021/04/04 06:54:46;;;;;;;;;;;8.40;62.50;;;;;;5023864;28;20391;-59
2021/04/04 06:57:13;;;;;;;;;;;8.40;62.50;;;;;;5023852;28;19959;-57
2021/04/04 06:59:49;;;;;;;;;;;8.40;62.50;;;;;;5022947;28;19909;-58
2021/04/04 07:02:14;;;;;;;;;;;8.40;62.50;;;;;;5021953;28;19964;-58
2021/04/04 07:04:41;;;;;;;;;;;8.40;62.50;;;;;;5022987;28;19913;-57
2021/04/04 07:07:26;;;;;;;;;;;8.40;62.70;;;;;;5023817;28;20335;-60
2021/04/04 07:09:59;;;;;;;;;;;8.40;62.70;;;;;;5025667;28;19924;-60
2021/04/04 07:12:36;;;;;;;;;;;8.40;62.80;;;;;;5026187;28;19909;-57
2021/04/04 07:15:08;;;;;;;;;;;8.40;62.80;;;;;;5022641;28;19917;-59
2021/04/04 07:17:48;;;;;;;;;;;8.40;63.00;;;;;;5022793;28;20314;-59
2021/04/04 07:20:32;;;;;;;;;;;8.30;63.00;;;;;;5025072;28;19913;-60
2021/04/04 07:23:03;;;;;;;;;;;8.30;63.00;;;;;;5025276;28;19910;-55
2021/04/04 07:25:43;;;;;;;;;;;8.30;63.10;;;;;;5023328;28;20280;-57
2021/04/04 07:28:15;;;;;;;;;;;8.30;63.20;;;;;;5022579;28;19963;-61
2021/04/04 07:30:45;;;;;;;;;;;8.30;63.30;;;;;;5022689;28;19941;-60
2021/04/04 07:33:11;;;;;;;;;;;8.30;63.30;;;;;;5023708;28;19910;-61
2021/04/04 07:35:42;;;;;;;;;;;8.30;63.40;;;;;;5025645;28;19914;-62
2021/04/04 07:38:12;;;;;;;;;;;8.30;63.50;;;;;;5006652;28;20301;-58
2021/04/04 07:40:56;;;;;;;;;;;8.30;63.60;;;;;;5023671;28;19933;-59
2021/04/04 07:43:24;;;;;;;;;;;8.30;63.60;;;;;;5023656;28;19975;-58
2021/04/04 07:46:08;;;;;;;;;;;8.30;63.70;;;;;;5026869;28;19917;-59
2021/04/04 07:48:46;;;;;;;;;;;8.30;63.70;;;;;;5029326;28;19917;-57
2021/04/04 07:51:26;;;;;;;;;;;8.30;63.70;;;;;;5026546;28;19920;-62
2021/04/04 07:53:55;;;;;;;;;;;8.30;63.80;;;;;;5025746;28;19909;-60
2021/04/04 07:56:20;;;;;;;;;;;8.30;63.70;;;;;;5027072;28;19917;-61
2021/04/04 07:58:53;;;;;;;;;;;8.30;63.80;;;;;;5027656;28;19917;-58
2021/04/04 08:01:19;;;;;;;;;;;8.30;64.00;;;;;;5026013;28;20004;-57
2021/04/04 08:03:49;;;;;;;;;;;8.30;64.00;;;;;;5028636;28;19913;-61
2021/04/04 08:06:15;;;;;;;;;;;8.30;64.00;;;;;;5025743;28;19913;-58
2021/04/04 08:08:41;;;;;;;;;;;8.30;64.00;;;;;;5008542;28;20233;-60
2021/04/04 08:11:28;;;;;;;;;;;8.30;63.90;;;;;;5026633;28;19990;-59
2021/04/04 08:13:53;;;;;;;;;;;8.40;64.00;;;;;;5010334;28;19917;-59
2021/04/04 08:16:30;;;;;;;;;;;8.30;64.00;;;;;;5029197;28;19940;-58
2021/04/04 08:18:55;;;;;;;;;;;8.30;64.00;;;;;;5027240;28;20021;-58
2021/04/04 08:21:22;;;;;;;;;;;8.30;64.10;;;;;;5010262;28;20387;-61
2021/04/04 08:23:49;;;;;;;;;;;8.30;64.00;;;;;;5027075;28;19921;-59
2021/04/04 08:26:15;;;;;;;;;;;8.40;64.10;;;;;;5026846;28;19951;-58
2021/04/04 08:28:45;;;;;;;;;;;8.40;64.00;;;;;;5026623;28;19952;-58
2021/04/04 08:31:15;;;;;;;;;;;8.40;64.00;;;;;;5026393;28;20378;-60
2021/04/04 08:33:50;;;;;;;;;;;8.40;64.00;;;;;;5024903;28;19968;-58
2021/04/04 08:36:17;;;;;;;;;;;8.40;64.00;;;;;;5025464;28;19948;-57
2021/04/04 08:38:42;;;;;;;;;;;8.40;63.90;;;;;;5025485;28;20007;-58
2021/04/04 08:41:08;;;;;;;;;;;8.40;63.90;;;;;;5028506;28;19927;-61
2021/04/04 08:43:34;;;;;;;;;;;8.40;63.90;;;;;;5026838;28;21185;-59
2021/04/04 08:46:06;;;;;;;;;;;8.40;63.80;;;;;;5024607;28;19925;-57
2021/04/04 08:48:31;;;;;;;;;;;8.40;63.70;;;;;;5024848;28;19909;-59
2021/04/04 08:51:00;;;;;;;;;;;8.40;63.60;;;;;;5025379;28;19920;-59
2021/04/04 08:53:30;;;;;;;;;;;8.50;63.60;;;;;;5025861;28;19917;-61
2021/04/04 08:55:55;;;;;;;;;;;8.40;63.50;;;;;;5009993;28;19916;-59
2021/04/04 08:58:23;;;;;;;;;;;8.40;63.60;;;;;;5024844;28;19909;-60
2021/04/04 09:00:50;;;;;;;;;;;8.50;63.50;;;;;;5023580;28;19913;-58
2021/04/04 09:03:18;;;;;;;;;;;8.50;63.60;;;;;;5026468;28;19917;-60
2021/04/04 09:05:43;;;;;;;;;;;8.50;63.50;;;;;;5027387;28;20295;-60
2021/04/04 09:08:11;;;;;;;;;;;8.50;63.30;;;;;;5025740;28;19929;-58
2021/04/04 09:10:41;;;;;;;;;;;8.50;63.30;;;;;;4992340;28;20308;-57
2021/04/04 09:13:07;;;;;;;;;;;8.50;63.00;;;;;;5007877;28;19910;-59
2021/04/04 09:15:32;;;;;;;;;;;8.50;62.90;;;;;;5024932;28;19920;-59
2021/04/04 09:17:58;;;;;;;;;;;8.50;62.80;;;;;;5025756;28;20024;-61
2021/04/04 09:20:30;;;;;;;;;;;8.60;62.50;;;;;;5025455;28;20404;-59
2021/04/04 09:22:55;;;;;;;;;;;8.50;62.10;;;;;;5026963;28;19909;-59
2021/04/04 09:25:21;;;;;;;;;;;8.60;62.90;;;;;;5024343;28;19909;-62
2021/04/04 09:27:46;;;;;;;;;;;8.60;62.10;;;;;;5024688;28;19999;-61
2021/04/04 09:30:22;;;;;;;;;;;8.60;62.00;;;;;;5025723;28;20676;-59
2021/04/04 09:32:47;;;;;;;;;;;8.60;62.00;;;;;;5026958;28;20296;-61
2021/04/04 09:35:16;;;;;;;;;;;8.70;61.90;;;;;;5025161;28;19931;-61
2021/04/04 09:37:42;;;;;;;;;;;8.70;61.80;;;;;;5024884;28;20034;-61
2021/04/04 09:40:08;;;;;;;;;;;8.70;61.90;;;;;;5024940;28;19983;-59
2021/04/04 09:42:33;;;;;;;;;;;8.70;61.80;;;;;;5025665;28;20377;-61
2021/04/04 09:45:11;;;;;;;;;;;8.80;61.70;;;;;;5025583;28;20359;-57
2021/04/04 09:47:37;;;;;;;;;;;8.80;61.70;;;;;;5026726;28;19913;-58
2021/04/04 09:50:03;;;;;;;;;;;8.80;61.80;;;;;;5025278;28;20276;-61
2021/04/04 09:52:29;;;;;;;;;;;8.80;61.70;;;;;;5023305;28;19963;-59
2021/04/04 09:54:59;;;;;;;;;;;8.80;61.60;;;;;;5025959;28;19967;-58
2021/04/04 09:57:24;;;;;;;;;;;8.90;61.60;;;;;;5024112;28;20015;-58
2021/04/04 09:59:50;;;;;;;;;;;8.90;61.60;;;;;;5025985;28;19999;-59
2021/04/04 10:02:31;;;;;;;;;;;8.90;61.40;;;;;;5025762;28;19909;-58
2021/04/04 10:04:57;;;;;;;;;;;8.90;61.30;;;;;;5024324;28;19913;-61
2021/04/04 10:07:26;;;;;;;;;;;9.00;61.20;;;;;;5023213;28;19959;-59
2021/04/04 10:09:51;;;;;;;;;;;9.00;60.40;;;;;;5025498;28;19924;-58
2021/04/04 10:12:17;;;;;;;;;;;9.00;61.10;;;;;;5025218;28;20281;-59
2021/04/04 10:14:47;;;;;;;;;;;9.00;60.30;;;;;;5025175;28;19968;-61
2021/04/04 10:17:13;;;;;;;;;;;9.10;60.60;;;;;;5022538;28;20260;-61
2021/04/04 10:19:52;;;;;;;;;;;9.10;60.30;;;;;;5006901;28;20330;-59
2021/04/04 10:22:17;;;;;;;;;;;9.10;60.10;;;;;;5025843;28;19926;-61
2021/04/04 10:24:43;;;;;;;;;;;9.10;60.00;;;;;;5025629;28;19913;-58
2021/04/04 10:27:15;;;;;;;;;;;9.20;59.60;;;;;;5026668;28;20004;-58
2021/04/04 10:29:41;;;;;;;;;;;9.20;59.50;;;;;;5023047;28;19909;-62
2021/04/04 10:32:06;;;;;;;;;;;9.20;59.60;;;;;;5022695;28;19924;-62
2021/04/04 10:34:41;;;;;;;;;;;9.30;59.70;;;;;;5024892;28;19917;-61
2021/04/04 10:37:07;;;;;;;;;;;9.30;59.60;;;;;;5025427;28;19909;-58
2021/04/04 10:39:32;;;;;;;;;;;9.30;59.50;;;;;;5023863;28;19921;-62
2021/04/04 10:41:58;;;;;;;;;;;9.40;59.40;;;;;;5025608;28;19928;-58
2021/04/04 10:44:23;;;;;;;;;;;9.30;59.30;;;;;;5022314;28;19910;-61
2021/04/04 10:46:49;;;;;;;;;;;9.40;59.30;;;;;;5023668;28;19983;-59
2021/04/04 10:49:14;;;;;;;;;;;9.40;59.10;;;;;;5026503;28;19909;-62
2021/04/04 10:51:40;;;;;;;;;;;9.50;58.90;;;;;;5023710;28;20293;-59
2021/04/04 10:54:05;;;;;;;;;;;9.50;58.70;;;;;;5024318;28;19909;-61
2021/04/04 10:56:31;;;;;;;;;;;9.50;58.60;;;;;;5022663;28;19913;-58
2021/04/04 10:58:56;;;;;;;;;;;9.60;58.60;;;;;;5024489;28;19928;-59
2021/04/04 11:01:22;;;;;;;;;;;9.60;58.60;;;;;;5024601;28;19913;-58
2021/04/04 11:03:48;;;;;;;;;;;9.60;58.50;;;;;;5023689;28;20292;-62
2021/04/04 11:06:13;;;;;;;;;;;9.70;58.50;;;;;;5023859;28;19917;-60
2021/04/04 11:08:39;;;;;;;;;;;9.70;58.50;;;;;;5007443;28;19916;-62
2021/04/04 11:11:05;;;;;;;;;;;9.70;58.30;;;;;;5022791;28;19923;-58
2021/04/04 11:13:30;;;;;;;;;;;9.80;58.10;;;;;;5023281;28;20000;-59
2021/04/04 11:15:59;;;;;;;;;;;9.80;58.10;;;;;;5025128;28;20016;-62
2021/04/04 11:18:31;;;;;;;;;;;9.90;58.00;;;;;;5027499;28;19917;-59
2021/04/04 11:20:58;;;;;;;;;;;9.90;57.90;;;;;;5026872;28;19924;-58
2021/04/04 11:23:23;;;;;;;;;;;9.90;57.80;;;;;;5025816;28;19949;-61
2021/04/04 11:25:49;;;;;;;;;;;10.00;57.80;;;;;;5026686;28;20025;-62
2021/04/04 11:28:15;;;;;;;;;;;10.00;57.80;;;;;;5030726;28;20363;-62
2021/04/04 11:30:41;;;;;;;;;;;10.00;57.50;;;;;;5028993;28;19966;-58
2021/04/04 11:33:18;;;;;;;;;;;10.10;57.50;;;;;;5028919;28;20332;-60
2021/04/04 11:36:00;;;;;;;;;;;10.10;57.40;;;;;;5027318;28;19962;-61
2021/04/04 11:38:26;;;;;;;;;;;10.20;57.40;;;;;;5027661;28;20391;-59
2021/04/04 11:41:10;;;;;;;;;;;10.20;57.30;;;;;;5029703;28;19921;-59
2021/04/04 11:43:36;;;;;;;;;;;10.30;57.20;;;;;;5028565;28;19957;-59
2021/04/04 11:46:01;;;;;;;;;;;10.30;57.00;;;;;;5029041;28;20404;-60
2021/04/04 11:48:30;;;;;;;;;;;10.40;56.90;;;;;;5027436;28;19909;-56
2021/04/04 11:51:11;;;;;;;;;;;10.50;56.90;;;;;;5024500;28;19921;-58
2021/04/04 11:53:41;;;;;;;;;;;10.50;56.70;;;;;;5029155;28;19913;-56
2021/04/04 11:56:06;;;;;;;;;;;10.60;56.60;;;;;;5028602;28;19913;-59
2021/04/04 11:58:32;;;;;;;;;;;10.70;56.40;;;;;;5028609;28;19913;-57
2021/04/04 12:00:58;;;;;;;;;;;10.70;56.30;;;;;;5027681;28;19963;-56
2021/04/04 12:03:23;;;;;;;;;;;10.90;56.30;;;;;;5026872;28;20006;-60
2021/04/04 12:05:49;;;;;;;;;;;10.90;56.00;;;;;;5042670;28;19909;-59
2021/04/04 12:08:14;;;;;;;;;;;10.90;55.90;;;;;;5027452;28;19917;-59
2021/04/04 12:10:43;;;;;;;;;;;11.00;55.80;;;;;;5009857;28;19917;-57
2021/04/04 12:13:12;;;;;;;;;;;11.00;55.60;;;;;;5027861;28;19909;-57
2021/04/04 12:15:37;;;;;;;;;;;11.10;55.50;;;;;;5024174;28;19913;-55
2021/04/04 12:18:03;;;;;;;;;;;11.20;55.40;;;;;;5025894;28;19928;-60
2021/04/04 12:20:29;;;;;;;;;;;11.20;55.10;;;;;;5028228;28;19909;-57
2021/04/04 12:22:55;;;;;;;;;;;11.30;55.20;;;;;;5027323;28;19909;-56
2021/04/04 12:25:21;;;;;;;;;;;11.30;55.10;;;;;;5010561;28;20500;-56
2021/04/04 12:27:48;;;;;;;;;;;11.40;55.00;;;;;;5025074;28;19951;-57
2021/04/04 12:30:22;;;;;;;;;;;11.40;55.00;;;;;;5026831;28;20413;-56
2021/04/04 12:32:48;;;;;;;;;;;11.50;54.70;;;;;;5027802;28;19991;-56
2021/04/04 12:35:20;;;;;;;;;;;11.60;54.40;;;;;;5027109;28;19923;-55
2021/04/04 12:37:46;;;;;;;;;;;11.70;54.40;;;;;;5026204;28;19921;-56
2021/04/04 12:40:11;;;;;;;;;;;11.70;54.40;;;;;;5021702;28;19925;-56
2021/04/04 12:42:37;;;;;;;;;;;11.80;54.20;;;;;;5002741;28;19921;-55
2021/04/04 12:45:07;;;;;;;;;;;11.90;54.00;;;;;;5008147;28;20246;-58
2021/04/04 12:47:32;;;;;;;;;;;12.00;53.90;;;;;;5019953;28;19917;-55
2021/04/04 12:49:59;;;;;;;;;;;12.00;53.70;;;;;;5019322;28;19913;-59
2021/04/04 12:52:31;;;;;;;;;;;12.10;53.60;;;;;;5006886;28;20282;-58
2021/04/04 12:55:07;;;;;;;;;;;12.20;53.60;;;;;;5005522;28;19952;-56
2021/04/04 12:57:33;;;;;;;;;;;12.20;53.60;;;;;;5022361;28;20443;-60
2021/04/04 12:59:58;;;;;;;;;;;12.20;53.40;;;;;;5008920;28;19914;-55
2021/04/04 13:02:23;;;;;;;;;;;12.30;53.30;;;;;;5006724;28;20277;-56
2021/04/04 13:04:54;;;;;;;;;;;12.30;53.20;;;;;;5006218;28;19968;-57
2021/04/04 13:07:20;;;;;;;;;;;12.40;53.00;;;;;;5018462;28;20439;-59
2021/04/04 13:09:45;;;;;;;;;;;12.50;52.70;;;;;;5021058;28;19913;-58
2021/04/04 13:12:11;;;;;;;;;;;12.50;51.70;;;;;;5009067;28;20377;-60
2021/04/04 13:14:36;;;;;;;;;;;12.60;51.40;;;;;;5020731;28;19941;-56
2021/04/04 13:17:01;;;;;;;;;;;12.70;51.60;;;;;;5008182;28;19913;-58
2021/04/04 13:19:27;;;;;;;;;;;12.80;51.60;;;;;;5005043;28;19917;-59
2021/04/04 13:21:52;;;;;;;;;;;12.80;51.90;;;;;;5019501;28;19921;-59
2021/04/04 13:24:18;;;;;;;;;;;12.90;52.00;;;;;;5019102;28;20318;-57
2021/04/04 13:26:47;;;;;;;;;;;13.00;52.00;;;;;;5005217;28;19932;-58
2021/04/04 13:29:12;;;;;;;;;;;13.10;52.00;;;;;;5019336;28;19925;-59
2021/04/04 13:31:38;;;;;;;;;;;13.10;52.40;;;;;;5002562;28;19921;-56
2021/04/04 13:34:16;;;;;;;;;;;13.10;52.30;;;;;;5017432;28;20035;-60
2021/04/04 13:36:45;;;;;;;;;;;13.20;51.90;;;;;;5033985;28;19914;-60
2021/04/04 13:39:11;;;;;;;;;;;13.20;51.50;;;;;;5008264;28;19917;-57
2021/04/04 13:41:36;;;;;;;;;;;13.30;51.30;;;;;;5027304;28;19924;-59
2021/04/04 13:44:07;;;;;;;;;;;13.30;51.30;;;;;;5025023;28;20277;-58
2021/04/04 13:46:36;;;;;;;;;;;13.40;51.40;;;;;;5027064;28;19928;-59
2021/04/04 13:49:05;;;;;;;;;;;13.50;51.70;;;;;;5023805;28;19913;-59
2021/04/04 13:51:31;;;;;;;;;;;13.50;51.30;;;;;;5021346;28;19925;-57
2021/04/04 13:54:00;;;;;;;;;;;13.50;51.70;;;;;;5009800;28;20332;-59
2021/04/04 13:56:32;;;;;;;;;;;13.60;51.70;;;;;;5024428;28;20059;-56
2021/04/04 13:59:07;;;;;;;;;;;13.60;51.70;;;;;;5023373;28;20617;-56
2021/04/04 14:01:33;;;;;;;;;;;13.70;51.50;;;;;;5023236;28;20330;-57
2021/04/04 14:04:01;;;;;;;;;;;13.80;51.40;;;;;;5023151;28;19921;-57
2021/04/04 14:06:33;;;;;;;;;;;13.80;51.80;;;;;;5024092;28;19936;-56
2021/04/04 14:08:59;;;;;;;;;;;13.90;51.90;;;;;;5025830;28;19925;-57
2021/04/04 14:11:24;;;;;;;;;;;13.90;51.10;;;;;;5024133;28;20387;-56
2021/04/04 14:13:50;;;;;;;;;;;13.90;51.40;;;;;;5022735;28;19921;-57
2021/04/04 14:16:15;;;;;;;;;;;14.00;51.10;;;;;;5024825;28;19921;-57
2021/04/04 14:18:41;;;;;;;;;;;14.10;50.90;;;;;;5009176;28;19959;-56
2021/04/04 14:21:06;;;;;;;;;;;14.10;50.70;;;;;;5025067;28;19932;-56
2021/04/04 14:23:33;;;;;;;;;;;14.20;50.50;;;;;;5025593;28;20349;-58
2021/04/04 14:25:58;;;;;;;;;;;14.20;50.60;;;;;;5008545;28;19920;-59
2021/04/04 14:28:24;;;;;;;;;;;14.30;51.10;;;;;;5005373;28;19913;-56
2021/04/04 14:30:49;;;;;;;;;;;14.30;50.60;;;;;;5023544;28;20308;-60